Time;durP1;ratioP1;P1;durP2;ratioP2;P2;SDS_P1;SDS_P2;PMS_P1;PMS_P2;Temp;Humidity;BMP_temperature;BMP_pressure;BME280_temperature;BME280_humidity;BME280_pressure;Samples;Min_cycle;Max_cycle;Signal;HPM_P1;HPM_P2
2023/05/28 04:05:15;;;;;;;2.90;1.67;;;10.60;99.90;;;;;;5572347;23;20250;-65
2023/05/28 04:07:40;;;;;;;1.80;1.70;;;10.70;99.90;;;;;;4977173;28;20662;-64
2023/05/28 04:10:07;;;;;;;2.20;2.00;;;10.70;99.90;;;;;;4977604;28;20240;-65
2023/05/28 04:12:32;;;;;;;2.45;2.25;;;10.80;99.90;;;;;;4977356;28;20215;-65
2023/05/28 04:14:59;;;;;;;3.30;2.63;;;10.80;99.90;;;;;;4976942;28;20275;-65
2023/05/28 04:17:25;;;;;;;3.20;1.90;;;10.90;99.90;;;;;;4977512;28;20533;-65
2023/05/28 04:19:53;;;;;;;2.53;2.00;;;10.90;99.90;;;;;;4977369;28;20183;-66
2023/05/28 04:22:23;;;;;;;4.07;2.58;;;11.00;99.90;;;;;;4977378;28;20297;-65
2023/05/28 04:24:51;;;;;;;2.20;2.10;;;11.10;99.90;;;;;;4976778;28;20196;-65
2023/05/28 04:27:17;;;;;;;1.83;1.73;;;11.20;99.90;;;;;;4977248;28;20426;-65
2023/05/28 04:29:43;;;;;;;2.20;2.10;;;11.40;99.90;;;;;;4977229;28;20465;-65
2023/05/28 04:32:09;;;;;;;1.63;1.53;;;11.50;99.90;;;;;;4976952;28;20240;-65
2023/05/28 04:34:36;;;;;;;2.97;2.60;;;11.80;99.90;;;;;;4975758;28;20434;-65
2023/05/28 04:37:04;;;;;;;6.40;2.20;;;12.10;99.90;;;;;;4977052;28;20183;-66
2023/05/28 04:39:29;;;;;;;2.80;2.37;;;12.30;99.90;;;;;;4976791;28;20447;-65
2023/05/28 04:41:55;;;;;;;3.10;2.80;;;12.60;99.90;;;;;;4977036;28;20442;-65
2023/05/28 04:44:25;;;;;;;2.57;2.00;;;12.80;99.90;;;;;;4976549;28;20199;-65
2023/05/28 04:46:51;;;;;;;2.37;2.20;;;12.90;99.90;;;;;;4976828;28;20164;-66
2023/05/28 04:49:17;;;;;;;1.93;1.77;;;13.10;99.90;;;;;;4976762;28;20423;-65
2023/05/28 04:51:43;;;;;;;1.93;1.73;;;13.20;99.90;;;;;;4976391;28;20421;-65
2023/05/28 04:54:08;;;;;;;2.70;2.50;;;13.30;99.90;;;;;;4976222;28;20208;-65
2023/05/28 04:56:35;;;;;;;3.80;2.30;;;13.30;99.90;;;;;;4976629;28;20426;-65
2023/05/28 04:59:04;;;;;;;2.20;2.10;;;13.30;99.90;;;;;;4976636;28;20318;-65
2023/05/28 05:01:32;;;;;;;2.20;1.40;;;13.40;99.90;;;;;;4976696;28;20821;-65
2023/05/28 05:03:58;;;;;;;2.63;1.87;;;13.40;99.90;;;;;;4975848;28;20423;-65
2023/05/28 05:06:23;;;;;;;2.43;2.20;;;13.60;99.90;;;;;;4976199;28;20431;-66
2023/05/28 05:08:49;;;;;;;1.77;1.67;;;13.80;99.90;;;;;;4976308;28;20598;-65
2023/05/28 05:11:15;;;;;;;2.83;1.90;;;13.90;99.90;;;;;;4976554;28;20243;-66
2023/05/28 05:13:41;;;;;;;2.57;2.17;;;14.00;99.90;;;;;;4976367;28;20459;-65
2023/05/28 05:16:06;;;;;;;1.90;1.80;;;14.10;99.90;;;;;;4976327;28;20530;-65
2023/05/28 05:18:32;;;;;;;2.50;2.30;;;14.00;99.90;;;;;;4976350;28;20593;-65
2023/05/28 05:20:57;;;;;;;1.07;1.07;;;14.00;99.90;;;;;;4976316;28;20172;-66
2023/05/28 05:23:23;;;;;;;3.10;1.47;;;14.00;99.90;;;;;;4975760;28;20168;-65
2023/05/28 05:25:49;;;;;;;2.70;2.43;;;14.00;99.90;;;;;;4976033;28;20708;-65
2023/05/28 05:28:14;;;;;;;2.03;1.73;;;14.10;99.90;;;;;;4975902;28;20175;-65
2023/05/28 05:30:40;;;;;;;1.57;1.47;;;14.20;99.90;;;;;;4976003;28;20633;-66
2023/05/28 05:33:05;;;;;;;2.57;1.67;;;14.20;99.90;;;;;;4975656;28;20254;-65
2023/05/28 05:35:31;;;;;;;2.80;2.50;;;14.20;99.90;;;;;;4975623;28;20278;-66
2023/05/28 05:37:57;;;;;;;2.80;2.07;;;14.30;99.90;;;;;;4975955;28;20204;-65
2023/05/28 05:40:22;;;;;;;1.60;1.50;;;14.40;99.90;;;;;;4976015;28;20172;-65
2023/05/28 05:42:48;;;;;;;3.47;2.37;;;14.50;99.90;;;;;;4975879;28;20188;-65
2023/05/28 05:45:13;;;;;;;2.77;2.40;;;14.60;99.90;;;;;;4975384;28;20520;-65
2023/05/28 05:47:39;;;;;;;2.47;2.27;;;14.80;99.90;;;;;;4975838;28;20248;-65
2023/05/28 05:50:05;;;;;;;2.90;2.70;;;15.00;99.90;;;;;;4975985;28;20183;-65
2023/05/28 05:52:31;;;;;;;2.20;2.00;;;15.20;99.90;;;;;;4975545;28;20200;-65
2023/05/28 05:54:57;;;;;;;2.90;2.53;;;15.40;99.90;;;;;;4975016;28;20434;-65
2023/05/28 05:57:23;;;;;;;2.20;2.00;;;15.60;99.50;;;;;;4975663;28;20170;-65
2023/05/28 05:59:49;;;;;;;4.20;1.90;;;15.80;98.90;;;;;;4975351;28;20261;-65
2023/05/28 06:02:15;;;;;;;3.83;2.37;;;16.00;98.40;;;;;;4975426;28;20500;-65
2023/05/28 06:04:40;;;;;;;6.07;3.07;;;16.20;98.20;;;;;;4974231;28;20687;-65
2023/05/28 06:07:06;;;;;;;2.10;1.60;;;16.40;97.70;;;;;;4975009;28;20191;-65
2023/05/28 06:09:35;;;;;;;3.33;1.97;;;16.40;97.30;;;;;;4975406;28;20187;-66
2023/05/28 06:12:01;;;;;;;5.40;2.80;;;16.50;97.30;;;;;;4975257;28;20779;-65
2023/05/28 06:14:28;;;;;;;5.30;1.67;;;16.60;96.00;;;;;;4974692;28;21014;-66
2023/05/28 06:16:53;;;;;;;2.53;2.30;;;16.60;96.50;;;;;;4975192;28;20479;-66
2023/05/28 06:19:19;;;;;;;2.87;2.37;;;16.80;97.00;;;;;;4975096;28;20425;-66
2023/05/28 06:21:45;;;;;;;2.80;2.53;;;16.80;96.20;;;;;;4975081;28;20425;-65
2023/05/28 06:24:11;;;;;;;2.47;2.27;;;16.80;96.20;;;;;;4974427;28;20230;-65
2023/05/28 06:26:36;;;;;;;2.30;2.07;;;16.70;96.40;;;;;;4975004;28;20407;-65
2023/05/28 06:29:02;;;;;;;2.20;2.10;;;16.80;95.60;;;;;;4974981;28;20168;-65
2023/05/28 06:31:28;;;;;;;2.50;2.30;;;16.90;95.40;;;;;;4975030;28;20634;-65
2023/05/28 06:33:54;;;;;;;2.80;2.60;;;17.10;95.20;;;;;;4974508;28;20204;-65
2023/05/28 06:36:19;;;;;;;3.73;3.43;;;17.30;95.40;;;;;;4974810;28;20681;-64
2023/05/28 06:38:45;;;;;;;2.07;1.87;;;17.30;95.00;;;;;;4975215;28;20404;-65
2023/05/28 06:41:10;;;;;;;2.70;2.07;;;17.40;95.00;;;;;;4957341;28;20591;-65
2023/05/28 06:43:38;;;;;;;2.40;1.70;;;17.60;95.10;;;;;;4957087;28;20172;-65
2023/05/28 06:46:03;;;;;;;4.33;2.43;;;17.70;94.70;;;;;;4974652;28;20279;-65
2023/05/28 06:48:29;;;;;;;2.40;2.20;;;17.80;94.40;;;;;;4974734;28;20830;-65
2023/05/28 06:50:56;;;;;;;3.17;2.53;;;17.90;94.40;;;;;;4974668;28;20180;-65
2023/05/28 06:53:21;;;;;;;1.90;1.80;;;17.90;93.50;;;;;;4974395;28;20458;-64
2023/05/28 06:55:47;;;;;;;2.30;1.83;;;18.00;92.60;;;;;;4974604;28;20794;-65
2023/05/28 06:58:13;;;;;;;1.93;1.83;;;18.20;92.70;;;;;;4974570;28;20176;-65
2023/05/28 07:00:38;;;;;;;2.50;2.20;;;18.40;92.70;;;;;;4974644;28;20298;-65
2023/05/28 07:03:05;;;;;;;3.80;2.07;;;18.50;92.20;;;;;;4974465;28;20641;-66
2023/05/28 07:05:31;;;;;;;3.13;2.30;;;18.70;92.10;;;;;;4974104;28;20566;-65
2023/05/28 07:07:57;;;;;;;1.77;1.63;;;18.80;91.80;;;;;;4974291;28;20428;-65
2023/05/28 07:10:22;;;;;;;2.10;1.53;;;19.00;91.20;;;;;;4974475;28;20181;-65
2023/05/28 07:12:48;;;;;;;2.90;2.13;;;19.10;90.80;;;;;;4974259;28;20478;-64
2023/05/28 07:15:15;;;;;;;2.57;1.77;;;19.20;90.70;;;;;;4976084;28;20546;-65
2023/05/28 07:17:41;;;;;;;3.33;2.43;;;19.30;90.50;;;;;;4978365;28;20697;-65
2023/05/28 07:20:07;;;;;;;2.40;2.20;;;19.40;90.50;;;;;;4978248;28;20531;-65
2023/05/28 07:22:32;;;;;;;2.30;2.10;;;19.50;89.00;;;;;;4978274;28;20180;-65
2023/05/28 07:24:58;;;;;;;2.03;1.93;;;19.70;88.30;;;;;;4977965;28;20969;-65
2023/05/28 07:27:24;;;;;;;1.83;1.73;;;20.10;88.20;;;;;;4978452;28;20660;-65
2023/05/28 07:29:49;;;;;;;2.13;1.93;;;20.70;88.10;;;;;;4978052;28;20183;-65
2023/05/28 07:32:15;;;;;;;2.40;2.20;;;21.50;87.40;;;;;;4978027;28;20533;-66
2023/05/28 07:34:41;;;;;;;1.97;1.87;;;22.40;86.50;;;;;;4977596;28;20196;-65
2023/05/28 07:37:06;;;;;;;1.67;1.57;;;23.50;81.80;;;;;;4978117;28;20175;-65
2023/05/28 07:39:32;;;;;;;2.00;1.80;;;24.80;80.40;;;;;;4978161;28;20431;-67
2023/05/28 07:41:58;;;;;;;2.13;1.93;;;25.90;77.00;;;;;;4978052;28;20626;-66
2023/05/28 07:44:23;;;;;;;2.33;2.13;;;27.00;73.20;;;;;;4977471;28;20198;-66
2023/05/28 07:46:49;;;;;;;2.10;2.00;;;27.90;70.00;;;;;;4978009;28;20179;-65
2023/05/28 07:49:16;;;;;;;2.40;2.20;;;28.70;65.30;;;;;;4977843;28;20684;-65
2023/05/28 07:51:42;;;;;;;2.23;2.03;;;29.30;65.10;;;;;;4977695;28;20708;-66
2023/05/28 07:54:08;;;;;;;3.97;2.63;;;30.00;60.70;;;;;;4959900;28;20437;-66
2023/05/28 07:56:33;;;;;;;2.07;1.87;;;30.40;59.40;;;;;;4977699;28;20379;-66
2023/05/28 07:58:59;;;;;;;2.20;2.10;;;30.90;58.70;;;;;;4977820;28;20182;-66
2023/05/28 08:01:24;;;;;;;2.43;2.23;;;31.00;57.20;;;;;;4977460;28;20176;-66
2023/05/28 08:03:53;;;;;;;2.00;1.90;;;30.90;57.80;;;;;;4977090;28;20251;-66
2023/05/28 08:06:20;;;;;;;2.70;2.50;;;31.40;57.20;;;;;;4977292;28;20654;-66
2023/05/28 08:08:46;;;;;;;2.50;2.03;;;31.80;56.40;;;;;;4977499;28;20419;-66
2023/05/28 08:11:13;;;;;;;2.63;2.43;;;32.00;56.10;;;;;;4977307;28;20449;-66
2023/05/28 08:13:39;;;;;;;2.13;1.93;;;32.60;54.80;;;;;;4959502;28;20200;-66
2023/05/28 08:16:05;;;;;;;2.73;2.53;;;32.80;53.90;;;;;;4977292;28;20522;-66
2023/05/28 08:18:30;;;;;;;2.80;2.60;;;32.80;54.20;;;;;;4977342;28;20443;-67
2023/05/28 08:20:56;;;;;;;2.67;2.47;;;32.90;53.70;;;;;;4977412;28;20168;-66
2023/05/28 08:23:21;;;;;;;2.63;2.43;;;33.20;53.70;;;;;;4977275;28;20215;-65
2023/05/28 08:25:47;;;;;;;3.63;3.33;;;33.30;54.80;;;;;;4976573;28;20681;-66
2023/05/28 08:28:14;;;;;;;2.57;2.40;;;33.20;53.30;;;;;;4976844;28;20172;-66
2023/05/28 08:30:40;;;;;;;5.70;3.03;;;33.30;53.80;;;;;;4977071;28;20164;-67
2023/05/28 08:33:06;;;;;;;3.57;3.07;;;33.60;52.90;;;;;;4959534;28;20973;-66
2023/05/28 08:35:31;;;;;;;2.63;2.43;;;33.90;52.70;;;;;;4976688;28;20196;-66
2023/05/28 08:37:57;;;;;;;3.07;2.77;;;33.90;51.90;;;;;;4976912;28;20407;-67
2023/05/28 08:40:23;;;;;;;2.60;2.40;;;34.00;51.20;;;;;;4976931;28;20172;-67
2023/05/28 08:42:49;;;;;;;2.67;2.47;;;34.20;51.00;;;;;;4977006;28;20661;-66
2023/05/28 08:45:15;;;;;;;2.23;2.13;;;34.40;50.60;;;;;;4976564;28;20204;-67
2023/05/28 08:47:41;;;;;;;3.33;2.37;;;34.80;50.70;;;;;;4976728;28;20404;-67
2023/05/28 08:50:07;;;;;;;3.10;2.90;;;34.90;50.10;;;;;;4959220;28;20650;-67
2023/05/28 08:52:33;;;;;;;2.53;2.33;;;35.10;49.40;;;;;;4976693;28;20470;-66
2023/05/28 08:55:03;;;;;;;2.50;2.30;;;35.10;49.30;;;;;;4976325;28;20432;-66
2023/05/28 08:57:30;;;;;;;2.40;2.20;;;34.80;48.60;;;;;;4976502;28;20255;-68
2023/05/28 08:59:58;;;;;;;2.70;2.50;;;34.50;49.30;;;;;;4976486;28;20503;-67
2023/05/28 09:02:24;;;;;;;2.43;2.23;;;34.40;49.70;;;;;;4976456;28;20408;-66
2023/05/28 09:04:51;;;;;;;2.80;2.17;;;34.60;49.70;;;;;;4976096;28;20759;-66
2023/05/28 09:07:16;;;;;;;2.87;2.70;;;34.80;50.10;;;;;;4976281;28;20830;-66
2023/05/28 09:09:43;;;;;;;4.00;2.70;;;35.20;49.80;;;;;;4976191;28;20566;-67
2023/05/28 09:12:12;;;;;;;2.80;2.60;;;35.40;50.00;;;;;;4976506;28;20195;-67
2023/05/28 09:14:41;;;;;;;2.70;2.27;;;35.20;48.80;;;;;;4975827;28;20435;-67
2023/05/28 09:17:08;;;;;;;2.77;2.57;;;34.90;49.50;;;;;;4976323;28;20769;-67
2023/05/28 09:19:37;;;;;;;2.63;2.40;;;34.80;51.00;;;;;;4975926;28;20416;-66
2023/05/28 09:22:03;;;;;;;4.23;3.83;;;34.90;49.90;;;;;;4976134;28;20408;-66
2023/05/28 09:24:30;;;;;;;4.67;3.47;;;35.00;50.00;;;;;;4975462;28;20964;-67
2023/05/28 09:26:57;;;;;;;4.27;2.40;;;35.10;50.10;;;;;;4976058;28;20411;-65
2023/05/28 09:29:26;;;;;;;3.33;2.50;;;34.90;50.00;;;;;;4975701;28;20503;-65
2023/05/28 09:32:01;;;;;;;2.50;2.30;;;35.30;50.10;;;;;;4975963;28;20786;-66
2023/05/28 09:34:31;;;;;;;2.67;2.47;;;35.30;50.10;;;;;;4975531;28;20877;-65
2023/05/28 09:37:04;;;;;;;4.17;3.23;;;35.10;50.00;;;;;;4975821;28;20451;-66
2023/05/28 09:39:31;;;;;;;2.73;2.47;;;34.90;48.70;;;;;;4975682;28;20420;-66
2023/05/28 09:42:05;;;;;;;3.00;2.77;;;34.90;48.20;;;;;;4975767;28;20436;-66
2023/05/28 09:44:32;;;;;;;3.80;2.90;;;34.90;47.90;;;;;;4975248;28;20538;-66
2023/05/28 09:46:58;;;;;;;2.73;2.53;;;35.30;47.80;;;;;;4975601;28;20459;-66
2023/05/28 09:49:23;;;;;;;3.30;2.47;;;35.70;47.70;;;;;;4975822;28;20428;-67
2023/05/28 09:51:53;;;;;;;2.77;2.57;;;36.10;47.20;;;;;;4975525;28;20400;-66
2023/05/28 09:54:19;;;;;;;2.50;2.30;;;36.40;47.10;;;;;;4975058;28;20231;-67
2023/05/28 09:56:47;;;;;;;2.80;2.60;;;36.30;47.00;;;;;;4975471;28;20522;-66
2023/05/28 09:59:16;;;;;;;2.67;2.47;;;36.20;47.50;;;;;;4975363;28;20416;-66
2023/05/28 10:01:50;;;;;;;2.60;2.40;;;36.20;46.70;;;;;;4974686;28;20415;-67
2023/05/28 10:04:19;;;;;;;5.13;3.67;;;36.20;46.90;;;;;;4974805;28;20880;-67
2023/05/28 10:06:46;;;;;;;2.80;2.60;;;36.10;46.10;;;;;;4975044;28;20439;-67
2023/05/28 10:09:15;;;;;;;2.50;2.30;;;35.80;45.80;;;;;;4975120;28;20762;-66
2023/05/28 10:11:48;;;;;;;2.00;1.90;;;35.80;45.50;;;;;;4975061;28;20415;-67
2023/05/28 10:14:14;;;;;;;2.43;2.23;;;35.70;45.50;;;;;;4974708;28;20524;-67
2023/05/28 10:16:40;;;;;;;2.67;2.47;;;35.00;45.10;;;;;;4975195;28;20436;-66
2023/05/28 10:19:05;;;;;;;2.80;2.30;;;34.50;47.00;;;;;;4975109;28;20173;-66
2023/05/28 10:21:31;;;;;;;3.20;2.30;;;33.40;48.50;;;;;;4974855;28;20418;-66
2023/05/28 10:23:57;;;;;;;4.40;3.83;;;32.70;49.50;;;;;;4974660;28;20208;-66
2023/05/28 10:26:24;;;;;;;2.10;1.90;;;32.10;49.60;;;;;;4975047;28;20449;-66
2023/05/28 10:28:55;;;;;;;2.70;2.40;;;31.60;50.90;;;;;;4975042;28;20483;-66
2023/05/28 10:31:22;;;;;;;3.50;2.80;;;31.50;51.00;;;;;;4974887;28;20438;-66
2023/05/28 10:33:47;;;;;;;3.60;3.20;;;31.70;51.00;;;;;;4957132;28;20382;-66
2023/05/28 10:36:15;;;;;;;3.10;2.83;;;32.20;51.20;;;;;;4974547;28;20959;-66
2023/05/28 10:38:53;;;;;;;2.50;2.30;;;32.30;50.90;;;;;;4974819;28;20180;-66
2023/05/28 10:41:21;;;;;;;2.80;2.60;;;32.20;50.60;;;;;;4974820;28;20407;-66
2023/05/28 10:43:50;;;;;;;2.67;2.47;;;32.10;50.50;;;;;;4974386;28;20422;-66
2023/05/28 10:46:36;;;;;;;3.03;2.77;;;31.90;50.50;;;;;;4974681;28;20435;-66
2023/05/28 10:49:12;;;;;;;3.67;3.17;;;31.70;50.90;;;;;;4974344;28;20885;-66
2023/05/28 10:52:00;;;;;;;2.83;2.57;;;31.40;51.30;;;;;;4974801;28;20804;-65
2023/05/28 10:54:37;;;;;;;4.47;2.90;;;31.40;52.40;;;;;;4974150;28;20480;-65
2023/05/28 10:57:11;;;;;;;2.47;2.27;;;31.40;52.70;;;;;;4974276;28;20409;-66
2023/05/28 11:00:21;;;;;;;2.10;1.93;;;31.50;50.40;;;;;;4957173;28;20420;-65
2023/05/28 11:02:54;;;;;;;4.90;2.80;;;31.50;49.80;;;;;;4973637;28;20554;-66
2023/05/28 11:05:25;;;;;;;3.20;2.00;;;31.40;47.80;;;;;;4973944;28;20406;-66
2023/05/28 11:07:52;;;;;;;2.23;2.03;;;30.90;47.30;;;;;;4974926;28;20395;-66
2023/05/28 11:10:18;;;;;;;2.27;1.90;;;30.30;48.50;;;;;;4974387;28;20374;-66
2023/05/28 11:12:47;;;;;;;1.60;1.50;;;29.70;48.90;;;;;;4974460;28;20393;-65
2023/05/28 11:15:14;;;;;;;3.53;2.27;;;28.80;48.80;;;;;;4974064;28;20398;-66
2023/05/28 11:17:42;;;;;;;2.00;1.80;;;28.30;49.50;;;;;;4974489;28;20784;-66
2023/05/28 11:20:21;;;;;;;1.90;1.33;;;27.90;51.80;;;;;;4974370;28;20483;-65
2023/05/28 11:22:47;;;;;;;2.60;1.90;;;27.50;51.00;;;;;;4974284;28;20438;-65
2023/05/28 11:25:13;;;;;;;2.47;2.27;;;27.10;52.00;;;;;;4973887;28;20445;-65
2023/05/28 11:27:40;;;;;;;1.97;1.87;;;26.80;51.00;;;;;;4974473;28;20403;-65
2023/05/28 11:30:11;;;;;;;4.17;2.63;;;26.50;51.70;;;;;;4974261;28;20171;-65
2023/05/28 11:32:37;;;;;;;2.83;2.10;;;26.30;51.30;;;;;;4974472;28;20911;-65
2023/05/28 11:35:04;;;;;;;1.93;1.77;;;26.20;52.40;;;;;;4973954;28;20435;-66
2023/05/28 11:37:34;;;;;;;2.43;1.77;;;26.00;51.40;;;;;;4974437;28;20467;-65
2023/05/28 11:40:05;;;;;;;1.60;1.50;;;26.00;50.30;;;;;;4974323;28;20387;-65
2023/05/28 11:42:31;;;;;;;2.20;2.00;;;25.80;50.60;;;;;;4974271;28;20762;-65
2023/05/28 11:44:57;;;;;;;2.20;1.90;;;25.70;51.90;;;;;;4973803;28;20402;-65
2023/05/28 11:47:24;;;;;;;1.93;1.70;;;25.70;53.70;;;;;;4974261;28;20419;-66
2023/05/28 11:49:50;;;;;;;1.83;1.73;;;25.70;53.40;;;;;;4974244;28;20415;-65
2023/05/28 11:52:21;;;;;;;3.43;3.13;;;25.70;52.70;;;;;;4974259;28;20396;-65
2023/05/28 11:54:51;;;;;;;2.40;2.20;;;25.70;53.00;;;;;;4973569;28;20438;-65
2023/05/28 11:57:22;;;;;;;2.73;2.17;;;25.70;53.60;;;;;;4974125;28;20462;-65
2023/05/28 11:59:56;;;;;;;2.87;2.60;;;25.70;53.90;;;;;;4974363;28;20397;-65
2023/05/28 12:02:23;;;;;;;3.10;2.10;;;25.70;53.80;;;;;;4976173;28;20415;-66
2023/05/28 12:05:01;;;;;;;3.13;2.83;;;25.50;54.10;;;;;;4977743;28;20427;-66
2023/05/28 12:07:34;;;;;;;2.13;2.00;;;25.40;55.30;;;;;;4977705;28;20460;-65
2023/05/28 12:10:09;;;;;;;1.87;1.77;;;25.40;56.10;;;;;;4977967;28;20828;-65
2023/05/28 12:12:40;;;;;;;2.73;1.70;;;25.40;53.80;;;;;;4977705;28;20824;-66
2023/05/28 12:15:06;;;;;;;2.20;2.00;;;25.40;52.70;;;;;;4977336;28;20462;-66
2023/05/28 12:17:41;;;;;;;2.73;2.53;;;25.40;53.30;;;;;;4977463;28;20422;-66
2023/05/28 12:20:28;;;;;;;6.13;3.83;;;25.30;53.50;;;;;;4977079;28;20883;-66
2023/05/28 12:23:04;;;;;;;1.97;1.87;;;25.30;53.40;;;;;;4959588;28;20972;-66
2023/05/28 12:25:38;;;;;;;4.00;2.00;;;25.30;54.40;;;;;;4977047;28;20944;-66
2023/05/28 12:28:03;;;;;;;2.30;2.10;;;25.30;54.60;;;;;;4977304;28;20375;-66
2023/05/28 12:30:29;;;;;;;2.90;2.17;;;25.40;54.10;;;;;;4976981;28;20419;-66
2023/05/28 12:32:54;;;;;;;1.93;1.83;;;25.40;53.90;;;;;;4977085;28;20251;-66
2023/05/28 12:35:20;;;;;;;1.80;1.70;;;25.40;54.00;;;;;;4976604;28;20210;-66
2023/05/28 12:37:45;;;;;;;3.53;2.40;;;25.40;54.50;;;;;;4977302;28;20631;-66
2023/05/28 12:40:12;;;;;;;3.33;1.80;;;25.50;54.60;;;;;;4976908;28;20579;-65
2023/05/28 12:42:37;;;;;;;1.93;1.80;;;25.50;54.80;;;;;;4977027;28;20204;-66
2023/05/28 12:45:03;;;;;;;6.50;3.37;;;25.60;55.70;;;;;;4976429;28;20546;-66
2023/05/28 12:47:29;;;;;;;3.30;2.40;;;25.60;55.10;;;;;;4977160;28;20653;-66
2023/05/28 12:49:55;;;;;;;2.27;1.50;;;25.70;52.50;;;;;;4976685;28;20411;-66
2023/05/28 12:52:20;;;;;;;1.60;1.50;;;25.70;52.00;;;;;;4976573;28;20203;-65
2023/05/28 12:54:46;;;;;;;1.93;1.80;;;25.60;51.90;;;;;;4976216;28;20192;-65
2023/05/28 12:57:11;;;;;;;3.23;1.80;;;25.60;52.80;;;;;;4976686;28;20180;-66
2023/05/28 12:59:37;;;;;;;1.60;1.50;;;25.60;52.20;;;;;;4976623;28;20177;-66
2023/05/28 13:02:03;;;;;;;2.20;1.80;;;25.60;54.30;;;;;;4977086;28;20176;-66
2023/05/28 13:04:28;;;;;;;2.10;1.83;;;25.60;54.40;;;;;;4976195;28;20295;-66
2023/05/28 13:06:54;;;;;;;3.03;2.20;;;25.50;54.50;;;;;;4976502;28;20185;-66
2023/05/28 13:09:20;;;;;;;2.90;2.50;;;25.60;56.20;;;;;;4976801;28;20182;-66
2023/05/28 13:11:46;;;;;;;2.40;2.30;;;25.60;54.00;;;;;;4976246;28;20272;-66
2023/05/28 13:14:12;;;;;;;1.70;1.57;;;25.70;53.20;;;;;;4975850;28;20631;-66
2023/05/28 13:16:38;;;;;;;2.33;2.17;;;25.70;53.70;;;;;;4976411;28;20394;-66
2023/05/28 13:19:04;;;;;;;2.20;1.73;;;25.70;54.30;;;;;;4976250;28;20474;-66
2023/05/28 13:21:31;;;;;;;1.90;1.80;;;25.60;54.60;;;;;;4976108;28;20176;-66
2023/05/28 13:24:02;;;;;;;3.50;2.10;;;25.70;55.30;;;;;;4975656;28;20950;-65
2023/05/28 13:26:29;;;;;;;2.30;1.87;;;25.70;54.40;;;;;;4975957;28;20390;-66
2023/05/28 13:28:55;;;;;;;2.43;2.00;;;25.60;54.40;;;;;;4976116;28;20408;-66
2023/05/28 13:31:21;;;;;;;2.30;1.90;;;25.50;54.10;;;;;;4976112;28;20429;-66
2023/05/28 13:33:46;;;;;;;2.10;2.00;;;25.50;54.70;;;;;;4975858;28;20543;-65
2023/05/28 13:36:12;;;;;;;2.40;2.10;;;25.50;54.50;;;;;;4975993;28;20196;-65
2023/05/28 13:38:43;;;;;;;2.53;1.80;;;25.50;54.50;;;;;;4976022;28;20173;-66
2023/05/28 13:41:10;;;;;;;1.90;1.80;;;25.40;54.80;;;;;;4975252;28;20409;-65
2023/05/28 13:43:37;;;;;;;1.80;1.70;;;25.30;55.40;;;;;;4975171;28;20472;-66
2023/05/28 13:46:03;;;;;;;2.10;1.97;;;25.40;55.70;;;;;;4975604;28;20445;-66
2023/05/28 13:48:29;;;;;;;3.90;2.07;;;25.40;55.50;;;;;;4975340;28;20906;-66
2023/05/28 13:50:55;;;;;;;2.97;2.10;;;25.40;55.40;;;;;;4958444;28;20430;-66
2023/05/28 13:53:20;;;;;;;2.03;1.60;;;25.40;55.80;;;;;;4975309;28;20180;-66
2023/05/28 13:55:46;;;;;;;2.30;2.10;;;25.40;57.70;;;;;;4975484;28;20678;-66
2023/05/28 13:58:11;;;;;;;1.90;1.80;;;25.40;55.70;;;;;;4974948;28;20195;-66
2023/05/28 14:00:38;;;;;;;2.03;1.83;;;25.40;56.00;;;;;;4975386;28;20251;-66
2023/05/28 14:03:04;;;;;;;2.73;2.20;;;25.40;56.30;;;;;;4975178;28;20489;-66
2023/05/28 14:05:29;;;;;;;2.00;1.90;;;25.50;55.20;;;;;;4975194;28;20438;-66
2023/05/28 14:07:55;;;;;;;2.53;1.93;;;25.40;54.90;;;;;;4974870;28;20896;-66
2023/05/28 14:10:21;;;;;;;2.33;2.00;;;25.40;55.50;;;;;;4975089;28;20188;-66
2023/05/28 14:12:51;;;;;;;3.13;1.90;;;25.30;55.60;;;;;;4975153;28;20638;-65
2023/05/28 14:15:17;;;;;;;2.10;2.00;;;25.30;55.20;;;;;;4957390;28;20418;-65
2023/05/28 14:17:42;;;;;;;3.40;1.70;;;25.20;55.00;;;;;;4974987;28;20434;-66
2023/05/28 14:20:08;;;;;;;2.77;2.57;;;25.20;55.40;;;;;;4975319;28;20653;-66
2023/05/28 14:22:34;;;;;;;1.80;1.70;;;25.20;54.80;;;;;;4975261;28;20550;-66
2023/05/28 14:25:00;;;;;;;1.73;1.63;;;25.20;55.70;;;;;;4973814;28;20440;-66
2023/05/28 14:27:25;;;;;;;2.03;1.87;;;25.20;55.60;;;;;;4974945;28;20271;-65
2023/05/28 14:29:51;;;;;;;2.50;1.80;;;25.30;55.30;;;;;;4975234;28;20263;-66
2023/05/28 14:32:16;;;;;;;1.40;1.30;;;25.30;55.90;;;;;;4975139;28;20195;-65
2023/05/28 14:34:42;;;;;;;3.00;2.13;;;25.30;54.80;;;;;;4974636;28;20285;-66
2023/05/28 14:37:08;;;;;;;2.47;2.27;;;25.20;55.40;;;;;;4974723;28;20180;-66
2023/05/28 14:39:33;;;;;;;1.93;1.83;;;25.20;55.60;;;;;;4974216;28;20272;-65
2023/05/28 14:41:59;;;;;;;2.17;1.97;;;25.20;54.70;;;;;;4974563;28;20195;-67
2023/05/28 14:44:24;;;;;;;2.07;1.97;;;25.20;54.50;;;;;;4974144;28;20219;-66
2023/05/28 14:46:50;;;;;;;2.30;2.10;;;25.10;54.90;;;;;;4974932;28;20255;-66
2023/05/28 14:49:16;;;;;;;2.00;1.80;;;25.10;54.50;;;;;;4974576;28;20176;-66
2023/05/28 14:51:41;;;;;;;1.87;1.43;;;25.10;55.00;;;;;;4974594;28;20294;-65
2023/05/28 14:54:07;;;;;;;2.00;1.90;;;25.10;55.00;;;;;;4974220;28;20231;-65
2023/05/28 14:56:32;;;;;;;1.80;1.70;;;25.10;55.10;;;;;;4974541;28;20176;-65
2023/05/28 14:58:58;;;;;;;2.67;1.70;;;25.00;55.40;;;;;;4974519;28;20184;-65
2023/05/28 15:01:23;;;;;;;1.97;1.47;;;25.00;55.30;;;;;;4974671;28;20552;-65
2023/05/28 15:03:49;;;;;;;3.83;3.57;;;25.00;55.20;;;;;;4974357;28;20214;-65
2023/05/28 15:06:15;;;;;;;5.33;4.87;;;24.90;55.40;;;;;;4956872;28;20211;-65
2023/05/28 15:08:40;;;;;;;2.20;2.07;;;24.90;55.70;;;;;;4974152;28;20318;-65
2023/05/28 15:11:10;;;;;;;1.70;1.60;;;24.90;55.20;;;;;;4957328;28;20212;-65
2023/05/28 15:13:36;;;;;;;2.20;2.03;;;25.00;54.20;;;;;;4974305;28;20620;-65
2023/05/28 15:16:01;;;;;;;3.13;2.10;;;24.90;54.30;;;;;;4974346;28;20538;-65
2023/05/28 15:18:27;;;;;;;1.73;1.60;;;24.80;54.10;;;;;;4974781;28;20306;-65
2023/05/28 15:20:52;;;;;;;2.10;2.00;;;24.80;54.30;;;;;;4974414;28;20248;-65
2023/05/28 15:23:18;;;;;;;2.00;1.80;;;24.80;54.40;;;;;;4974171;28;20759;-65
2023/05/28 15:25:44;;;;;;;3.90;2.20;;;24.80;54.60;;;;;;4974331;28;20693;-65
2023/05/28 15:28:11;;;;;;;4.43;2.53;;;24.70;55.40;;;;;;4974231;28;20184;-66
2023/05/28 15:30:37;;;;;;;2.13;1.93;;;24.60;54.80;;;;;;4973639;28;20184;-65
2023/05/28 15:33:04;;;;;;;2.67;2.43;;;24.60;54.90;;;;;;4956728;28;20398;-65
2023/05/28 15:35:30;;;;;;;3.13;1.83;;;24.60;55.10;;;;;;4974949;28;20440;-65
2023/05/28 15:37:56;;;;;;;2.50;2.00;;;24.50;55.30;;;;;;4960740;28;20460;-64
2023/05/28 15:40:22;;;;;;;2.63;1.83;;;24.50;55.70;;;;;;4977694;28;20415;-66
2023/05/28 15:42:49;;;;;;;3.77;2.70;;;24.50;55.20;;;;;;4978098;28;20421;-66
2023/05/28 15:45:15;;;;;;;2.70;2.30;;;24.50;55.40;;;;;;4960182;28;20196;-65
2023/05/28 15:47:41;;;;;;;2.10;1.90;;;24.50;55.80;;;;;;4978057;28;20953;-65
2023/05/28 15:50:07;;;;;;;2.33;2.13;;;24.60;55.80;;;;;;4977743;28;20563;-64
2023/05/28 15:52:32;;;;;;;2.43;2.20;;;24.60;55.70;;;;;;4977860;28;20176;-65
2023/05/28 15:55:00;;;;;;;1.93;1.83;;;24.60;55.30;;;;;;4977372;28;20188;-66
2023/05/28 15:57:26;;;;;;;2.20;2.00;;;24.60;55.40;;;;;;4977861;28;20176;-65
2023/05/28 15:59:52;;;;;;;3.33;2.70;;;24.60;55.60;;;;;;4977442;28;20419;-64
2023/05/28 16:02:19;;;;;;;3.97;2.53;;;24.60;55.20;;;;;;4977743;28;20259;-65
2023/05/28 16:04:45;;;;;;;4.33;3.90;;;24.50;55.20;;;;;;4976983;28;20686;-65
2023/05/28 16:07:12;;;;;;;3.30;2.30;;;24.50;55.40;;;;;;4977438;28;20506;-65
2023/05/28 16:09:39;;;;;;;2.07;1.97;;;24.40;55.50;;;;;;4959763;28;20177;-65
2023/05/28 16:12:05;;;;;;;3.50;2.70;;;24.40;55.60;;;;;;4977325;28;20402;-66
2023/05/28 16:14:33;;;;;;;4.53;2.50;;;24.40;55.60;;;;;;4977077;28;20434;-66
2023/05/28 16:17:00;;;;;;;2.50;2.30;;;24.40;55.70;;;;;;4977478;28;20829;-66
2023/05/28 16:19:25;;;;;;;2.93;2.17;;;24.40;56.00;;;;;;4977164;28;20394;-66
2023/05/28 16:21:51;;;;;;;2.17;1.97;;;24.30;55.60;;;;;;4977345;28;20433;-66
2023/05/28 16:24:18;;;;;;;2.53;1.73;;;24.30;55.80;;;;;;4976879;28;20283;-65
2023/05/28 16:26:47;;;;;;;1.73;1.63;;;24.30;56.00;;;;;;4960321;28;20622;-66
2023/05/28 16:29:13;;;;;;;2.40;1.60;;;24.20;56.40;;;;;;4976990;28;20415;-65
2023/05/28 16:31:39;;;;;;;3.27;2.00;;;24.20;55.80;;;;;;4977092;28;20737;-65
2023/05/28 16:34:04;;;;;;;2.60;2.40;;;24.20;56.20;;;;;;4976724;28;20209;-65
2023/05/28 16:36:32;;;;;;;2.90;1.93;;;24.20;56.20;;;;;;4976962;28;20413;-65
2023/05/28 16:38:59;;;;;;;1.80;1.70;;;24.20;56.30;;;;;;4976818;28;20181;-64
2023/05/28 16:41:26;;;;;;;2.97;2.70;;;24.20;55.80;;;;;;4976659;28;20416;-67
2023/05/28 16:43:52;;;;;;;2.07;1.90;;;24.10;56.20;;;;;;4976278;28;20441;-66
2023/05/28 16:46:18;;;;;;;3.13;2.00;;;24.10;56.20;;;;;;4976888;28;20410;-65
2023/05/28 16:48:44;;;;;;;2.17;1.97;;;24.00;55.80;;;;;;4975939;28;20661;-66
2023/05/28 16:51:10;;;;;;;2.37;2.17;;;24.00;55.60;;;;;;4976388;28;20397;-66